Main page
METAR-TAF:

METAR-TAF

Airports :

Brønnøysund Airport. Brønnøy

Brønnøysund, Norway

latitude: 65-28N, longitude: 012-13E, elevation: 0 m

Current weather observation

The report was made 29 minutes ago, at 10:50 UTC
Wind 10 kt from the East
Temperature 1°C
Humidity 55%
Pressure 993 hPa
Visibility 10 km or more
no clouds below 1500 m and no cumulonimbus

METAR: ENBN 281050Z 09010KT CAVOK 01/M07 Q0993

Time: 12:19 (11:19 UTC)

Forecast

The report was made 3 hours and 19 minutes ago, at 08:00 UTC
Forecast valid from 28 at 09 UTC to 28 at 18 UTC
Wind 15 kt from the South/Southeast
Visibility 10 km or more
Few clouds at a height of 3000 ft
Broken clouds at a height of 4000 ft

TAF: ENBN 280800Z 2809/2818 16015KT 9999 FEW030 BKN040

Weather observations and forecasts of more than 4000 airports (METAR and TAF reports).

The available stations are represented by yellow and red dots on the map.

Hover mouse over dot to see the name of the station.

Then click to see weather observations and forecasts.

To change the map : click on the green buttons with a black cross to zoom in, on the green button with a dash to zoom out, or on the green arrows for adjacent maps.


METAR-TAF: